Allwood, New Jersey
Current Conditions -  °F | °C
As of 10:51 PM on Saturday 20 Dec 2014 (Local Time) from KTEB Reporting Station
Overcast Overcast  
Wind Chill: 32°   Ceiling: 3000
Heat Index: 32°   Visibility: 10mi
Dew Point: 21°   Wind: 3mph
Humidity: 64%   Direction: 10°N
Pressure: 30.29"   Gusts: NA
Location:  40.8469°N, 74.1593°W
Report Text: KTEB 210351Z 01003KT 10SM OVC030 00/M06 A3029 RMK AO2 SLP257 T00001061
Loading
Personal Weather Stations






























Interactive Weather Map New forecast layout! Learn more

10-Day Weather Forecast

Advertisements
Track Severe Weather on mobile